createdAt,value
2022-12-28T00:01:15.814Z,1.90
2022-12-28T00:03:43.013Z,2.15
2022-12-28T00:06:10.548Z,1.80
2022-12-28T00:08:37.629Z,1.95
2022-12-28T00:11:11.329Z,2.03
2022-12-28T00:13:41.487Z,1.65
2022-12-28T00:16:13.304Z,1.85
2022-12-28T00:18:39.732Z,2.00
2022-12-28T00:21:06.135Z,1.77
2022-12-28T00:23:33.071Z,1.52
2022-12-28T00:26:11.182Z,2.00
2022-12-28T00:28:37.631Z,2.08
2022-12-28T00:31:04.205Z,1.70
2022-12-28T00:33:31.145Z,1.77
2022-12-28T00:35:59.758Z,1.90
2022-12-28T00:38:27.737Z,1.98
2022-12-28T00:40:54.222Z,1.90
2022-12-28T00:43:20.675Z,1.95
2022-12-28T00:45:48.161Z,2.20
2022-12-28T00:48:15.634Z,1.90
2022-12-28T00:50:43.270Z,2.10
2022-12-28T00:53:10.997Z,2.03
2022-12-28T00:55:38.070Z,1.90
2022-12-28T00:58:05.283Z,2.00
2022-12-28T01:00:32.678Z,2.03
2022-12-28T01:02:59.235Z,2.50
2022-12-28T01:05:25.901Z,2.22
2022-12-28T01:07:52.367Z,1.98
2022-12-28T01:10:19.087Z,2.25
2022-12-28T01:12:45.563Z,2.03
2022-12-28T01:15:13.474Z,2.20
2022-12-28T01:17:40.997Z,2.30
2022-12-28T01:20:09.219Z,2.67
2022-12-28T01:22:37.844Z,3.40
2022-12-28T01:25:04.826Z,2.58
2022-12-28T01:27:32.146Z,2.03
2022-12-28T01:29:58.598Z,2.58
2022-12-28T01:32:25.088Z,2.35
2022-12-28T01:34:51.481Z,2.60
2022-12-28T01:37:18.124Z,2.70
2022-12-28T01:39:44.622Z,2.47
2022-12-28T01:42:16.957Z,2.58
2022-12-28T01:44:46.400Z,2.88
2022-12-28T01:47:16.859Z,2.60
2022-12-28T01:49:58.686Z,2.78
2022-12-28T01:52:35.655Z,2.80
2022-12-28T01:55:20.101Z,2.78
2022-12-28T01:58:02.349Z,3.03
2022-12-28T02:00:29.341Z,2.95
2022-12-28T02:03:07.380Z,3.00
2022-12-28T02:05:38.452Z,2.95
2022-12-28T02:08:23.301Z,3.03
2022-12-28T02:10:51.953Z,3.00
2022-12-28T02:13:21.223Z,3.25
2022-12-28T02:15:48.574Z,3.60
2022-12-28T02:18:17.384Z,3.35
2022-12-28T02:21:11.819Z,3.63
2022-12-28T02:24:06.132Z,3.75
2022-12-28T02:26:52.845Z,3.78
2022-12-28T02:29:52.887Z,3.50
2022-12-28T02:32:57.669Z,3.90
2022-12-28T02:35:34.222Z,4.32
2022-12-28T02:38:00.586Z,4.20
2022-12-28T02:40:34.962Z,4.28
2022-12-28T02:43:03.383Z,4.00
2022-12-28T02:45:59.211Z,4.13
2022-12-28T02:48:44.824Z,3.65
2022-12-28T02:51:27.178Z,4.05
2022-12-28T02:54:37.841Z,3.90
2022-12-28T02:57:31.449Z,4.30
2022-12-28T03:00:16.827Z,4.45
2022-12-28T03:03:01.976Z,4.05
2022-12-28T03:06:19.110Z,4.60
2022-12-28T03:08:49.091Z,4.35
2022-12-28T03:11:20.567Z,4.38
2022-12-28T03:14:02.944Z,4.57
2022-12-28T03:17:04.136Z,4.18
2022-12-28T03:19:55.394Z,4.35
2022-12-28T03:22:42.363Z,4.15
2022-12-28T03:25:32.947Z,4.72
2022-12-28T03:28:20.331Z,4.43
2022-12-28T03:31:09.231Z,4.75
2022-12-28T03:33:42.708Z,4.53
2022-12-28T03:36:23.622Z,4.78
2022-12-28T03:39:14.444Z,4.63
2022-12-28T03:42:32.879Z,4.60
2022-12-28T03:45:06.474Z,4.80
2022-12-28T03:47:34.501Z,5.00
2022-12-28T03:50:01.297Z,4.78
2022-12-28T03:52:28.240Z,4.68
2022-12-28T03:54:54.705Z,4.35
2022-12-28T03:57:23.181Z,4.25
2022-12-28T03:59:55.132Z,4.25
2022-12-28T04:02:21.652Z,4.88
2022-12-28T04:04:48.150Z,5.28
2022-12-28T04:07:14.536Z,4.57
2022-12-28T04:09:40.923Z,4.60
2022-12-28T04:12:07.474Z,5.00
2022-12-28T04:14:33.893Z,4.85
2022-12-28T04:17:00.327Z,4.50
2022-12-28T04:19:26.751Z,4.78
2022-12-28T04:21:53.136Z,4.93
2022-12-28T04:24:19.564Z,5.03
2022-12-28T04:26:45.943Z,4.65
2022-12-28T04:29:12.381Z,4.80
2022-12-28T04:31:38.940Z,5.20
2022-12-28T04:34:06.467Z,4.80
2022-12-28T04:36:32.996Z,5.15
2022-12-28T04:39:00.249Z,4.80
2022-12-28T04:41:26.932Z,4.80
2022-12-28T04:43:56.677Z,5.05
2022-12-28T04:46:24.965Z,4.70
2022-12-28T04:48:52.173Z,4.35
2022-12-28T04:51:24.983Z,4.70
2022-12-28T04:53:52.565Z,4.18
2022-12-28T04:56:20.688Z,4.03
2022-12-28T04:58:47.549Z,4.53
2022-12-28T05:01:16.943Z,4.25
2022-12-28T05:03:50.913Z,4.70
2022-12-28T05:06:22.372Z,4.45
2022-12-28T05:08:49.112Z,4.45
2022-12-28T05:11:18.530Z,3.95
2022-12-28T05:13:45.634Z,4.47
2022-12-28T05:16:15.108Z,4.15
2022-12-28T05:18:41.847Z,4.20
2022-12-28T05:21:13.088Z,4.03
2022-12-28T05:23:40.147Z,4.13
2022-12-28T05:26:07.831Z,4.72
2022-12-28T05:28:34.262Z,4.05
2022-12-28T05:31:02.463Z,4.18
2022-12-28T05:33:30.453Z,4.25
2022-12-28T05:35:57.517Z,4.57
2022-12-28T05:38:23.900Z,4.00
2022-12-28T05:40:50.348Z,3.70
2022-12-28T05:43:16.752Z,3.70
2022-12-28T05:45:43.146Z,4.30
2022-12-28T05:48:09.537Z,3.50
2022-12-28T05:50:35.950Z,3.83
2022-12-28T05:53:02.349Z,3.80
2022-12-28T05:55:28.930Z,3.53
2022-12-28T05:57:56.077Z,3.45
2022-12-28T06:00:22.584Z,3.70
2022-12-28T06:02:49.008Z,3.63
2022-12-28T06:05:15.600Z,3.78
2022-12-28T06:07:42.075Z,3.83
2022-12-28T06:10:08.997Z,3.53
2022-12-28T06:12:35.429Z,3.90
2022-12-28T06:15:01.846Z,3.22
2022-12-28T06:17:28.323Z,4.47
2022-12-28T06:19:54.783Z,3.50
2022-12-28T06:22:21.216Z,3.50
2022-12-28T06:24:47.592Z,4.03
2022-12-28T06:27:14.002Z,3.70
2022-12-28T06:29:42.462Z,4.00
2022-12-28T06:32:08.928Z,3.88
2022-12-28T06:34:35.348Z,3.97
2022-12-28T06:37:01.770Z,3.70
2022-12-28T06:39:29.150Z,3.95
2022-12-28T06:41:55.551Z,3.78
2022-12-28T06:44:21.971Z,3.83
2022-12-28T06:46:48.363Z,3.97
2022-12-28T06:49:14.753Z,3.90
2022-12-28T06:51:42.052Z,3.47
2022-12-28T06:54:09.838Z,3.78
2022-12-28T06:56:37.451Z,4.28
2022-12-28T06:59:04.824Z,3.85
2022-12-28T07:01:40.506Z,4.22
2022-12-28T07:04:09.464Z,4.05
2022-12-28T07:06:44.369Z,4.03
2022-12-28T07:09:13.929Z,3.30
2022-12-28T07:11:41.110Z,3.67
2022-12-28T07:14:07.577Z,4.13
2022-12-28T07:19:00.484Z,3.58
2022-12-28T07:21:30.066Z,3.28
2022-12-28T07:23:57.609Z,6.63
2022-12-28T07:26:26.616Z,3.50
2022-12-28T07:28:55.157Z,4.15
2022-12-28T07:31:24.656Z,4.18
2022-12-28T07:33:53.038Z,4.15
2022-12-28T07:36:20.798Z,3.72
2022-12-28T07:38:47.761Z,4.25
2022-12-28T07:41:26.299Z,4.03
2022-12-28T07:43:52.722Z,3.65
2022-12-28T07:46:28.011Z,4.32
2022-12-28T07:51:29.935Z,3.78
2022-12-28T07:56:25.157Z,3.90
2022-12-28T07:58:54.089Z,4.03
2022-12-28T08:01:23.403Z,4.03
2022-12-28T08:03:54.139Z,4.13
2022-12-28T08:06:22.900Z,4.18
2022-12-28T08:08:54.050Z,4.55
2022-12-28T08:11:23.531Z,4.25
2022-12-28T08:13:51.743Z,4.28
2022-12-28T08:16:19.947Z,4.55
2022-12-28T08:18:48.225Z,4.32
2022-12-28T08:21:15.804Z,4.50
2022-12-28T08:23:42.550Z,4.25
2022-12-28T08:26:11.535Z,4.03
2022-12-28T08:28:39.305Z,4.22
2022-12-28T08:31:08.640Z,4.35
2022-12-28T08:33:35.824Z,4.82
2022-12-28T08:36:03.221Z,4.65
2022-12-28T08:38:29.696Z,4.65
2022-12-28T08:41:01.433Z,4.20
2022-12-28T08:43:29.197Z,4.57
2022-12-28T08:46:03.511Z,3.95
2022-12-28T08:48:30.305Z,4.55
2022-12-28T08:51:02.191Z,4.45
2022-12-28T08:53:28.624Z,4.90
2022-12-28T08:55:55.109Z,4.13
2022-12-28T08:58:21.487Z,4.45
2022-12-28T09:00:47.958Z,4.40
2022-12-28T09:03:14.373Z,4.68
2022-12-28T09:05:40.912Z,4.22
2022-12-28T09:08:07.328Z,4.07
2022-12-28T09:10:33.765Z,4.35
2022-12-28T09:13:00.198Z,4.53
2022-12-28T09:15:26.819Z,4.32
2022-12-28T09:17:53.326Z,4.30
2022-12-28T09:20:19.740Z,3.85
2022-12-28T09:22:46.093Z,4.00
2022-12-28T09:25:12.514Z,3.63
2022-12-28T09:27:38.894Z,5.10
2022-12-28T09:30:05.779Z,3.90
2022-12-28T09:32:32.172Z,4.28
2022-12-28T09:34:58.589Z,4.20
2022-12-28T09:37:25.011Z,4.15
2022-12-28T09:39:51.422Z,4.03
2022-12-28T09:42:23.632Z,3.75
2022-12-28T09:45:12.278Z,3.80
2022-12-28T09:47:52.441Z,4.07
2022-12-28T09:50:19.022Z,3.80
2022-12-28T09:53:03.353Z,3.95
2022-12-28T09:55:31.505Z,4.00
2022-12-28T09:57:59.186Z,3.75
2022-12-28T10:00:30.911Z,3.67
2022-12-28T10:03:10.672Z,3.95
2022-12-28T10:05:37.141Z,3.72
2022-12-28T10:08:04.036Z,3.75
2022-12-28T10:10:30.598Z,3.95
2022-12-28T10:13:04.564Z,3.60
2022-12-28T10:15:32.444Z,4.28
2022-12-28T10:17:58.857Z,4.25
2022-12-28T10:20:25.241Z,4.15
2022-12-28T10:22:55.782Z,3.90
2022-12-28T10:25:25.448Z,3.67
2022-12-28T10:27:52.433Z,3.88
2022-12-28T10:30:27.795Z,3.40
2022-12-28T10:33:02.519Z,3.42
2022-12-28T10:35:40.775Z,3.13
2022-12-28T10:38:29.161Z,3.38
2022-12-28T10:41:02.705Z,3.63
2022-12-28T10:43:33.916Z,3.35
2022-12-28T10:46:01.968Z,3.55
2022-12-28T10:48:32.131Z,3.30
2022-12-28T10:51:01.641Z,3.50
2022-12-28T10:53:33.555Z,3.22
2022-12-28T10:56:12.289Z,3.00
2022-12-28T10:58:47.150Z,3.60
2022-12-28T11:01:13.618Z,7.30
2022-12-28T11:04:00.668Z,3.63
2022-12-28T11:06:50.681Z,5.03
2022-12-28T11:09:22.106Z,4.72
2022-12-28T11:11:50.332Z,3.55
2022-12-28T11:14:35.976Z,3.00
2022-12-28T11:17:24.898Z,5.05
2022-12-28T11:19:58.232Z,4.90
2022-12-28T11:22:27.986Z,2.95
2022-12-28T11:24:55.167Z,3.50
2022-12-28T11:27:23.573Z,3.08
2022-12-28T11:29:54.889Z,3.33
2022-12-28T11:32:25.984Z,2.92
2022-12-28T11:34:54.596Z,3.15
2022-12-28T11:37:21.490Z,2.97
2022-12-28T11:39:49.957Z,3.08
2022-12-28T11:42:41.803Z,2.60
2022-12-28T11:45:46.790Z,3.75
2022-12-28T11:48:41.165Z,2.65
2022-12-28T11:53:58.515Z,2.95
2022-12-28T11:56:48.768Z,3.30
2022-12-28T11:59:27.443Z,2.53
2022-12-28T12:02:23.905Z,3.80
2022-12-28T12:04:50.385Z,2.75
2022-12-28T12:07:30.709Z,2.72
2022-12-28T12:10:21.424Z,2.72
2022-12-28T12:12:52.442Z,2.90
2022-12-28T12:15:45.567Z,2.20
2022-12-28T12:18:20.284Z,2.55
2022-12-28T12:21:02.077Z,2.50
2022-12-28T12:23:40.658Z,2.38
2022-12-28T12:26:27.531Z,2.35
2022-12-28T12:29:04.898Z,2.08
2022-12-28T12:31:35.929Z,2.22
2022-12-28T12:34:27.631Z,2.55
2022-12-28T12:37:15.695Z,2.58
2022-12-28T12:39:57.925Z,2.80
2022-12-28T12:42:42.778Z,2.00
2022-12-28T12:45:27.474Z,1.80
2022-12-28T12:48:44.716Z,1.80
2022-12-28T12:51:48.293Z,1.63
2022-12-28T12:54:42.716Z,1.50
2022-12-28T12:59:54.448Z,1.67
2022-12-28T13:02:39.326Z,2.45
2022-12-28T13:05:07.321Z,1.98
2022-12-28T13:07:34.182Z,2.00
2022-12-28T13:10:03.765Z,2.72
2022-12-28T13:12:30.343Z,1.90
2022-12-28T13:15:09.112Z,2.05
2022-12-28T13:17:38.863Z,1.95
2022-12-28T13:20:19.889Z,1.65
2022-12-28T13:22:48.375Z,1.95
2022-12-28T13:25:26.886Z,1.80
2022-12-28T13:27:54.181Z,1.60
2022-12-28T13:30:23.063Z,2.22
2022-12-28T13:32:52.977Z,2.13
2022-12-28T13:35:22.841Z,1.90
2022-12-28T13:38:02.760Z,1.60
2022-12-28T13:40:30.884Z,1.85
2022-12-28T13:43:37.839Z,1.85
2022-12-28T13:46:08.801Z,1.60
2022-12-28T13:48:38.130Z,1.60
2022-12-28T13:51:08.674Z,1.70
2022-12-28T13:53:36.144Z,1.70
2022-12-28T13:56:06.514Z,2.83
2022-12-28T13:58:41.335Z,2.00
2022-12-28T14:01:14.939Z,1.83
2022-12-28T14:03:46.314Z,1.80
2022-12-28T14:06:18.068Z,1.83
2022-12-28T14:08:44.824Z,1.90
2022-12-28T14:11:11.696Z,1.75
2022-12-28T14:13:39.431Z,2.08
2022-12-28T14:16:06.941Z,1.83
2022-12-28T14:18:33.988Z,1.73
2022-12-28T14:21:01.628Z,1.90
2022-12-28T14:23:31.198Z,2.00
2022-12-28T14:26:00.163Z,2.00
2022-12-28T14:28:34.474Z,2.33
2022-12-28T14:31:02.564Z,1.95
2022-12-28T14:33:32.833Z,1.95
2022-12-28T14:36:05.388Z,2.28
2022-12-28T14:38:39.919Z,1.80
2022-12-28T14:41:07.291Z,2.05
2022-12-28T14:43:35.713Z,1.80
2022-12-28T14:46:28.817Z,1.70
2022-12-28T14:48:55.321Z,2.28
2022-12-28T14:51:30.966Z,1.90
2022-12-28T14:54:16.838Z,2.20
2022-12-28T14:57:13.566Z,2.33
2022-12-28T14:59:44.876Z,1.83
2022-12-28T15:02:33.125Z,2.10
2022-12-28T15:05:02.944Z,2.30
2022-12-28T15:07:31.411Z,1.73
2022-12-28T15:09:57.851Z,1.65
2022-12-28T15:12:24.283Z,2.05
2022-12-28T15:14:51.887Z,1.60
2022-12-28T15:17:18.929Z,1.67
2022-12-28T15:19:45.677Z,2.00
2022-12-28T15:22:13.205Z,1.67
2022-12-28T15:24:41.538Z,1.83
2022-12-28T15:27:07.972Z,1.70
2022-12-28T15:32:20.770Z,1.83
2022-12-28T15:34:47.156Z,2.10
2022-12-28T15:37:13.608Z,1.50
2022-12-28T15:39:40.013Z,1.77
2022-12-28T15:42:06.440Z,1.90
2022-12-28T15:47:07.107Z,1.67
2022-12-28T15:49:34.110Z,1.55
2022-12-28T15:52:00.520Z,1.63
2022-12-28T15:54:26.922Z,1.58
2022-12-28T15:56:55.673Z,1.80
2022-12-28T16:01:51.448Z,2.15
2022-12-28T16:04:18.051Z,2.38
2022-12-28T16:06:45.317Z,1.80
2022-12-28T16:09:13.090Z,1.98
2022-12-28T16:11:39.624Z,1.55
2022-12-28T16:14:08.800Z,1.67
2022-12-28T16:16:38.441Z,1.58
2022-12-28T16:19:05.810Z,1.50
2022-12-28T16:21:32.874Z,1.60
2022-12-28T16:24:03.455Z,1.65
2022-12-28T16:26:29.859Z,1.70
2022-12-28T16:28:57.599Z,1.70
2022-12-28T16:31:30.768Z,1.60
2022-12-28T16:34:03.784Z,1.98
2022-12-28T16:36:30.755Z,2.10
2022-12-28T16:38:57.297Z,4.82
2022-12-28T16:41:25.009Z,1.95
2022-12-28T16:43:51.887Z,1.55
2022-12-28T16:46:18.889Z,1.85
2022-12-28T16:48:45.557Z,1.60
2022-12-28T16:51:12.491Z,2.05
2022-12-28T16:53:39.025Z,1.95
2022-12-28T16:56:06.098Z,2.28
2022-12-28T16:58:33.190Z,2.17
2022-12-28T17:01:09.367Z,1.60
2022-12-28T17:03:36.975Z,2.10
2022-12-28T17:06:04.092Z,2.17
2022-12-28T17:08:30.984Z,2.65
2022-12-28T17:10:57.457Z,3.10
2022-12-28T17:13:23.888Z,2.10
2022-12-28T17:15:50.504Z,2.30
2022-12-28T17:18:17.068Z,2.10
2022-12-28T17:20:45.164Z,2.10
2022-12-28T17:23:11.998Z,2.33
2022-12-28T17:25:38.517Z,1.88
2022-12-28T17:28:04.926Z,2.33
2022-12-28T17:30:31.581Z,1.60
2022-12-28T17:32:57.988Z,1.77
2022-12-28T17:35:24.409Z,1.80
2022-12-28T17:37:50.983Z,1.50
2022-12-28T17:40:17.533Z,1.80
2022-12-28T17:42:47.098Z,1.60
2022-12-28T17:45:13.565Z,1.40
2022-12-28T17:47:40.043Z,1.52
2022-12-28T17:50:07.327Z,1.60
2022-12-28T17:52:33.759Z,1.60
2022-12-28T17:55:00.265Z,1.92
2022-12-28T17:57:26.788Z,1.85
2022-12-28T17:59:53.202Z,1.77
2022-12-28T18:02:19.696Z,2.50
2022-12-28T18:04:46.257Z,2.00
2022-12-28T18:07:12.655Z,1.75
2022-12-28T18:09:39.069Z,1.63
2022-12-28T18:12:05.514Z,1.80
2022-12-28T18:14:31.885Z,1.92
2022-12-28T18:16:58.767Z,1.45
2022-12-28T18:19:25.252Z,1.70
2022-12-28T18:21:51.625Z,1.50
2022-12-28T18:24:20.796Z,1.50
2022-12-28T18:26:48.012Z,1.58
2022-12-28T18:29:14.501Z,1.48
2022-12-28T18:31:40.956Z,1.27
2022-12-28T18:34:07.509Z,1.30
2022-12-28T18:36:34.277Z,1.48
2022-12-28T18:39:02.145Z,1.92
2022-12-28T18:41:33.662Z,2.45
2022-12-28T18:44:02.627Z,1.98
2022-12-28T18:46:29.243Z,1.58
2022-12-28T18:48:56.543Z,1.38
2022-12-28T18:51:22.988Z,1.52
2022-12-28T18:53:51.894Z,1.80
2022-12-28T18:56:20.363Z,1.63
2022-12-28T18:58:52.509Z,2.22
2022-12-28T19:04:09.980Z,1.70
2022-12-28T19:06:37.361Z,1.52
2022-12-28T19:09:06.187Z,1.50
2022-12-28T19:11:33.202Z,1.77
2022-12-28T19:14:02.155Z,1.30
2022-12-28T19:16:31.817Z,1.30
2022-12-28T19:18:59.884Z,1.50
2022-12-28T19:21:36.271Z,1.48
2022-12-28T19:24:10.055Z,1.50
2022-12-28T19:26:36.424Z,1.45
2022-12-28T19:29:03.717Z,1.67
2022-12-28T19:31:31.269Z,1.52
2022-12-28T19:33:58.108Z,1.70
2022-12-28T19:36:24.920Z,1.40
2022-12-28T19:38:54.137Z,1.40
2022-12-28T19:41:21.176Z,1.45
2022-12-28T19:43:47.645Z,1.20
2022-12-28T19:46:20.396Z,1.67
2022-12-28T19:48:46.860Z,1.27
2022-12-28T19:51:14.565Z,1.42
2022-12-28T19:53:41.343Z,1.60
2022-12-28T19:56:12.965Z,1.27
2022-12-28T19:58:39.699Z,1.40
2022-12-28T20:01:20.200Z,1.48
2022-12-28T20:03:47.053Z,1.10
2022-12-28T20:06:19.201Z,1.45
2022-12-28T20:08:46.991Z,1.33
2022-12-28T20:11:13.520Z,1.42
2022-12-28T20:13:40.381Z,1.42
2022-12-28T20:16:07.294Z,1.50
2022-12-28T20:18:33.720Z,1.48
2022-12-28T20:21:22.634Z,1.40
2022-12-28T20:23:50.622Z,1.35
2022-12-28T20:26:20.788Z,1.50
2022-12-28T20:28:49.937Z,1.80
2022-12-28T20:31:16.664Z,1.67
2022-12-28T20:33:43.797Z,1.80
2022-12-28T20:36:13.512Z,1.50
2022-12-28T20:38:42.744Z,1.60
2022-12-28T20:41:41.055Z,1.45
2022-12-28T20:44:10.625Z,1.77
2022-12-28T20:46:37.201Z,1.70
2022-12-28T20:49:04.229Z,1.63
2022-12-28T20:51:30.765Z,1.60
2022-12-28T20:53:57.198Z,1.70
2022-12-28T20:56:23.686Z,1.55
2022-12-28T20:58:50.497Z,1.92
2022-12-28T21:01:17.847Z,1.65
2022-12-28T21:03:45.585Z,1.58
2022-12-28T21:06:12.768Z,2.28
2022-12-28T21:08:39.195Z,2.25
2022-12-28T21:11:05.793Z,2.05
2022-12-28T21:13:32.521Z,1.88
2022-12-28T21:16:02.354Z,1.50
2022-12-28T21:18:28.823Z,1.60
2022-12-28T21:20:57.238Z,1.50
2022-12-28T21:23:23.635Z,1.55
2022-12-28T21:25:50.129Z,1.60
2022-12-28T21:28:16.706Z,1.35
2022-12-28T21:30:43.194Z,1.30
2022-12-28T21:33:10.034Z,1.40
2022-12-28T21:35:41.773Z,1.50
2022-12-28T21:38:08.162Z,1.65
2022-12-28T21:40:34.520Z,1.50
2022-12-28T21:43:00.902Z,1.40
2022-12-28T21:45:27.344Z,1.52
2022-12-28T21:47:53.790Z,1.60
2022-12-28T21:50:20.157Z,1.58
2022-12-28T21:52:46.762Z,1.70
2022-12-28T21:55:36.048Z,1.50
2022-12-28T21:58:02.492Z,1.50
2022-12-28T22:00:47.570Z,1.40
2022-12-28T22:03:32.812Z,1.73
2022-12-28T22:06:06.512Z,1.50
2022-12-28T22:08:52.095Z,1.50
2022-12-28T22:11:37.893Z,1.75
2022-12-28T22:14:06.494Z,1.60
2022-12-28T22:16:34.650Z,1.33
2022-12-28T22:19:03.575Z,1.55
2022-12-28T22:21:30.834Z,1.40
2022-12-28T22:23:57.279Z,1.48
2022-12-28T22:26:23.757Z,1.30
2022-12-28T22:28:50.370Z,1.50
2022-12-28T22:31:16.914Z,1.30
2022-12-28T22:33:43.439Z,1.50
2022-12-28T22:36:15.215Z,1.50
2022-12-28T22:38:41.704Z,1.10
2022-12-28T22:41:08.954Z,1.30
2022-12-28T22:43:35.587Z,1.48
2022-12-28T22:46:02.830Z,1.40
2022-12-28T22:48:29.485Z,1.33
2022-12-28T22:50:56.001Z,1.75
2022-12-28T22:53:22.394Z,1.48
2022-12-28T22:56:03.742Z,1.23
2022-12-28T22:58:30.697Z,1.40
2022-12-28T23:01:08.395Z,1.30
2022-12-28T23:03:38.253Z,1.20
2022-12-28T23:06:06.192Z,1.42
2022-12-28T23:08:32.941Z,1.20
2022-12-28T23:11:01.952Z,1.20
2022-12-28T23:13:31.764Z,1.42
2022-12-28T23:16:02.190Z,1.70
2022-12-28T23:18:47.311Z,1.45
2022-12-28T23:21:38.171Z,1.40
2022-12-28T23:24:24.483Z,1.50
2022-12-28T23:27:10.312Z,1.30
2022-12-28T23:29:36.677Z,1.23
2022-12-28T23:32:03.183Z,1.20
2022-12-28T23:34:29.565Z,1.30
2022-12-28T23:36:56.210Z,1.20
2022-12-28T23:39:23.505Z,1.50
2022-12-28T23:41:50.986Z,1.23
2022-12-28T23:44:19.374Z,1.70
2022-12-28T23:46:47.451Z,1.60
2022-12-28T23:49:14.230Z,1.42
2022-12-28T23:51:41.699Z,1.73
2022-12-28T23:54:09.674Z,1.73
2022-12-28T23:56:36.182Z,1.30
2022-12-28T23:59:04.247Z,1.38
